createdAt,value
2022-10-26T00:00:17.399Z,101365.66
2022-10-26T00:03:14.584Z,101358.84
2022-10-26T00:06:13.055Z,101363.22
2022-10-26T00:09:10.389Z,101352.59
2022-10-26T00:12:07.278Z,101349.50
2022-10-26T00:15:04.485Z,101356.34
2022-10-26T00:18:01.185Z,101349.66
2022-10-26T00:21:03.783Z,101349.78
2022-10-26T00:24:01.107Z,101349.75
2022-10-26T00:26:58.349Z,101347.03
2022-10-26T00:29:55.184Z,101347.03
2022-10-26T00:32:52.120Z,101348.22
2022-10-26T00:35:53.163Z,101358.31
2022-10-26T00:38:51.085Z,101344.13
2022-10-26T00:41:48.285Z,101335.22
2022-10-26T00:44:47.857Z,101335.34
2022-10-26T00:47:47.331Z,101338.53
2022-10-26T00:50:44.475Z,101338.53
2022-10-26T00:53:41.448Z,101328.97
2022-10-26T00:56:38.453Z,101327.88
2022-10-26T00:59:35.182Z,101326.97
2022-10-26T01:02:32.145Z,101328.09
2022-10-26T01:05:29.334Z,101313.34
2022-10-26T01:08:28.231Z,101307.75
2022-10-26T01:11:25.080Z,101326.41
2022-10-26T01:14:22.568Z,101327.25
2022-10-26T01:17:32.483Z,101321.09
2022-10-26T01:20:46.631Z,101323.81
2022-10-26T01:24:05.023Z,101327.50
2022-10-26T01:27:07.991Z,101321.16
2022-10-26T01:30:22.037Z,101319.59
2022-10-26T01:33:31.161Z,101302.16
2022-10-26T01:36:40.064Z,101301.91
2022-10-26T01:39:40.095Z,101309.69
2022-10-26T01:42:37.516Z,101313.81
2022-10-26T01:45:34.251Z,101299.00
2022-10-26T01:48:31.240Z,101303.31
2022-10-26T01:51:28.872Z,101287.16
2022-10-26T01:54:26.303Z,101288.81
2022-10-26T01:57:23.049Z,101278.31
2022-10-26T02:00:20.229Z,101283.59
2022-10-26T02:03:28.802Z,101277.78
2022-10-26T02:06:55.030Z,101278.00
2022-10-26T02:10:14.675Z,101277.50
2022-10-26T02:13:49.233Z,101265.88
2022-10-26T02:16:53.675Z,101262.28
2022-10-26T02:19:57.939Z,101267.47
2022-10-26T02:22:55.802Z,101263.75
2022-10-26T02:25:56.619Z,101266.28
2022-10-26T02:28:55.101Z,101263.41
2022-10-26T02:31:52.540Z,101265.88
2022-10-26T02:34:49.498Z,101264.84
2022-10-26T02:37:47.167Z,101259.56
2022-10-26T02:40:44.404Z,101262.09
2022-10-26T02:43:47.787Z,101247.19
2022-10-26T02:46:45.195Z,101244.38
2022-10-26T02:49:42.719Z,101254.16
2022-10-26T02:52:51.830Z,101256.16
2022-10-26T02:55:49.845Z,101250.59
2022-10-26T02:58:50.021Z,101237.38
2022-10-26T03:01:47.445Z,101243.25
2022-10-26T03:04:44.532Z,101246.66
2022-10-26T03:07:41.302Z,101255.31
2022-10-26T03:10:43.648Z,101243.00
2022-10-26T03:13:40.241Z,101247.47
2022-10-26T03:16:37.677Z,101240.50
2022-10-26T03:19:34.554Z,101241.50
2022-10-26T03:22:31.350Z,101238.13
2022-10-26T03:25:28.276Z,101240.16
2022-10-26T03:28:25.778Z,101240.88
2022-10-26T03:31:22.643Z,101239.72
2022-10-26T03:34:19.791Z,101230.63
2022-10-26T03:37:16.575Z,101227.31
2022-10-26T03:40:13.637Z,101224.03
2022-10-26T03:43:10.342Z,101220.56
2022-10-26T03:46:07.425Z,101218.59
2022-10-26T03:49:04.617Z,101215.28
2022-10-26T03:52:01.662Z,101207.25
2022-10-26T03:54:58.253Z,101215.94
2022-10-26T03:57:55.063Z,101221.22
2022-10-26T04:00:52.425Z,101223.16
2022-10-26T04:03:49.370Z,101218.66
2022-10-26T04:09:48.509Z,101220.94
2022-10-26T04:12:45.573Z,101232.56
2022-10-26T04:15:43.322Z,101239.72
2022-10-26T04:18:40.361Z,101236.03
2022-10-26T04:21:37.313Z,101222.03
2022-10-26T04:24:34.708Z,101220.13
2022-10-26T04:27:31.626Z,101216.28
2022-10-26T04:30:28.435Z,101217.63
2022-10-26T04:33:25.509Z,101227.31
2022-10-26T04:36:22.436Z,101222.09
2022-10-26T04:39:19.098Z,101219.72
2022-10-26T04:42:16.511Z,101222.13
2022-10-26T04:45:14.896Z,101216.63
2022-10-26T04:48:13.064Z,101217.97
2022-10-26T04:51:10.413Z,101214.50
2022-10-26T04:54:07.529Z,101218.97
2022-10-26T04:57:04.200Z,101226.78
2022-10-26T05:00:02.307Z,101223.50
2022-10-26T05:03:03.349Z,101213.44
2022-10-26T05:06:00.811Z,101222.41
2022-10-26T05:08:57.588Z,101224.81
2022-10-26T05:11:54.457Z,101225.84
2022-10-26T05:14:51.767Z,101220.75
2022-10-26T05:17:55.331Z,101222.69
2022-10-26T05:20:53.093Z,101220.88
2022-10-26T05:23:55.459Z,101225.22
2022-10-26T05:26:52.304Z,101230.25
2022-10-26T05:29:49.784Z,101229.91
2022-10-26T05:32:53.928Z,101238.94
2022-10-26T05:35:54.403Z,101234.72
2022-10-26T05:38:51.575Z,101227.84
2022-10-26T05:41:48.533Z,101235.00
2022-10-26T05:44:45.452Z,101233.13
2022-10-26T05:47:42.956Z,101240.22
2022-10-26T05:50:40.254Z,101226.81
2022-10-26T05:53:37.655Z,101237.22
2022-10-26T05:56:39.405Z,101226.13
2022-10-26T05:59:37.200Z,101232.19
2022-10-26T06:03:06.633Z,101235.53
2022-10-26T06:06:05.371Z,101235.16
2022-10-26T06:09:04.684Z,101226.41
2022-10-26T06:12:02.050Z,101238.50
2022-10-26T06:14:59.953Z,101250.19
2022-10-26T06:17:57.709Z,101244.94
2022-10-26T06:21:27.226Z,101252.97
2022-10-26T06:24:31.008Z,101256.59
2022-10-26T06:27:56.831Z,101263.38
2022-10-26T06:30:53.549Z,101259.94
2022-10-26T06:33:51.916Z,101263.19
2022-10-26T06:36:48.587Z,101260.44
2022-10-26T06:39:48.959Z,101257.63
2022-10-26T06:42:48.793Z,101263.03
2022-10-26T06:45:45.857Z,101258.53
2022-10-26T06:48:51.757Z,101268.59
2022-10-26T06:52:00.168Z,101271.34
2022-10-26T06:54:57.685Z,101270.97
2022-10-26T06:57:54.644Z,101268.03
2022-10-26T07:00:53.342Z,101268.97
2022-10-26T07:03:50.527Z,101259.69
2022-10-26T07:06:47.384Z,101259.69
2022-10-26T07:09:44.305Z,101255.75
2022-10-26T07:12:41.826Z,101261.63
2022-10-26T07:15:39.016Z,101265.06
2022-10-26T07:18:36.336Z,101262.63
2022-10-26T07:21:33.646Z,101269.66
2022-10-26T07:24:30.973Z,101271.25
2022-10-26T07:27:27.601Z,101275.97
2022-10-26T07:30:25.243Z,101273.38
2022-10-26T07:33:22.683Z,101270.78
2022-10-26T07:36:19.804Z,101269.69
2022-10-26T07:39:16.781Z,101271.59
2022-10-26T07:42:14.705Z,101273.28
2022-10-26T07:45:11.831Z,101280.13
2022-10-26T07:48:08.696Z,101276.63
2022-10-26T07:51:05.738Z,101271.19
2022-10-26T07:54:02.895Z,101268.22
2022-10-26T07:56:59.820Z,101271.41
2022-10-26T07:59:56.735Z,101272.47
2022-10-26T08:02:54.286Z,101274.34
2022-10-26T08:05:55.783Z,101269.28
2022-10-26T08:08:52.776Z,101267.06
2022-10-26T08:11:49.591Z,101276.25
2022-10-26T08:14:46.484Z,101276.03
2022-10-26T08:17:44.056Z,101271.88
2022-10-26T08:20:41.524Z,101274.34
2022-10-26T08:23:39.058Z,101282.84
2022-10-26T08:26:37.014Z,101293.94
2022-10-26T08:29:33.580Z,101285.31
2022-10-26T08:32:30.485Z,101283.28
2022-10-26T08:35:28.273Z,101282.91
2022-10-26T08:38:25.700Z,101272.38
2022-10-26T08:41:28.719Z,101269.59
2022-10-26T08:44:27.219Z,101275.41
2022-10-26T08:47:30.964Z,101274.41
2022-10-26T08:50:42.764Z,101263.38
2022-10-26T08:54:00.980Z,101272.09
2022-10-26T08:56:58.890Z,101266.88
2022-10-26T09:00:04.808Z,101270.41
2022-10-26T09:03:01.455Z,101257.72
2022-10-26T09:06:14.652Z,101260.44
2022-10-26T09:09:18.468Z,101250.53
2022-10-26T09:12:18.741Z,101247.75
2022-10-26T09:15:21.819Z,101249.81
2022-10-26T09:18:21.685Z,101256.31
2022-10-26T09:21:54.057Z,101251.25
2022-10-26T09:24:55.501Z,101246.41
2022-10-26T09:27:57.639Z,101252.00
2022-10-26T09:30:54.897Z,101250.44
2022-10-26T09:33:51.741Z,101250.28
2022-10-26T09:36:53.161Z,101246.53
2022-10-26T09:40:13.577Z,101263.69
2022-10-26T09:43:12.858Z,101258.34
2022-10-26T09:46:13.482Z,101263.50
2022-10-26T09:49:11.248Z,101267.00
2022-10-26T09:52:08.669Z,101273.38
2022-10-26T09:55:06.017Z,101275.66
2022-10-26T09:58:03.961Z,101275.53
2022-10-26T10:01:00.753Z,101276.09
2022-10-26T10:04:16.865Z,101276.94
2022-10-26T10:07:14.184Z,101279.16
2022-10-26T10:10:21.758Z,101286.22
2022-10-26T10:13:21.004Z,101294.66
2022-10-26T10:16:21.686Z,101291.31
2022-10-26T10:19:29.564Z,101283.56
2022-10-26T10:22:26.848Z,101287.25
2022-10-26T10:25:37.454Z,101298.59
2022-10-26T10:28:35.036Z,101298.88
2022-10-26T10:31:32.958Z,101316.69
2022-10-26T10:34:33.372Z,101311.00
2022-10-26T10:37:42.917Z,101324.25
2022-10-26T10:40:39.985Z,101332.22
2022-10-26T10:43:36.444Z,101325.06
2022-10-26T10:46:33.931Z,101332.47
2022-10-26T10:49:30.883Z,101342.84
2022-10-26T10:52:35.034Z,101348.47
2022-10-26T10:55:32.070Z,101347.00
2022-10-26T10:59:16.892Z,101347.59
2022-10-26T11:02:29.008Z,101343.16
2022-10-26T11:05:40.799Z,101327.53
2022-10-26T11:08:43.755Z,101323.75
2022-10-26T11:11:45.616Z,101327.09
2022-10-26T11:14:49.539Z,101314.78
2022-10-26T11:18:00.735Z,101323.88
2022-10-26T11:21:02.582Z,101329.75
2022-10-26T11:24:11.182Z,101321.75
2022-10-26T11:27:13.267Z,101323.41
2022-10-26T11:30:18.364Z,101330.94
2022-10-26T11:33:22.349Z,101331.50
2022-10-26T11:36:22.012Z,101336.94
2022-10-26T11:39:34.740Z,101318.88
2022-10-26T11:42:45.047Z,101323.00
2022-10-26T11:45:43.114Z,101325.47
2022-10-26T11:49:23.772Z,101311.53
2022-10-26T11:52:39.962Z,101315.22
2022-10-26T11:55:36.677Z,101308.66
2022-10-26T11:58:33.605Z,101300.06
2022-10-26T12:01:31.062Z,101311.09
2022-10-26T12:04:29.991Z,101306.63
2022-10-26T12:07:29.542Z,101307.03
2022-10-26T12:10:29.195Z,101315.25
2022-10-26T12:13:56.805Z,101313.84
2022-10-26T12:17:06.631Z,101305.78
2022-10-26T12:20:06.535Z,101303.38
2022-10-26T12:23:04.455Z,101303.34
2022-10-26T12:26:23.432Z,101314.78
2022-10-26T12:29:36.836Z,101305.72
2022-10-26T12:32:34.075Z,101316.03
2022-10-26T12:35:35.490Z,101331.78
2022-10-26T12:38:33.794Z,101359.09
2022-10-26T12:41:31.239Z,101322.38
2022-10-26T12:44:43.499Z,101312.06
2022-10-26T12:47:41.163Z,101311.88
2022-10-26T12:50:38.069Z,101316.06
2022-10-26T12:53:35.000Z,101325.44
2022-10-26T12:56:52.814Z,101340.66
2022-10-26T13:00:02.259Z,101339.84
2022-10-26T13:03:08.806Z,101347.59
2022-10-26T13:06:28.967Z,101345.97
2022-10-26T13:09:30.316Z,101341.03
2022-10-26T13:12:28.455Z,101345.94
2022-10-26T13:15:41.290Z,101350.09
2022-10-26T13:18:49.357Z,101368.00
2022-10-26T13:21:46.938Z,101376.13
2022-10-26T13:24:48.834Z,101373.38
2022-10-26T13:27:45.762Z,101378.84
2022-10-26T13:30:44.818Z,101394.38
2022-10-26T13:33:42.399Z,101382.59
2022-10-26T13:36:50.418Z,101380.03
2022-10-26T13:39:48.495Z,101363.00
2022-10-26T13:42:47.016Z,101371.59
2022-10-26T13:45:56.999Z,101369.63
2022-10-26T13:49:05.075Z,101370.09
2022-10-26T13:52:03.011Z,101357.38
2022-10-26T13:55:02.089Z,101363.16
2022-10-26T13:58:17.440Z,101360.31
2022-10-26T14:01:21.666Z,101358.66
2022-10-26T14:04:26.857Z,101366.84
2022-10-26T14:07:25.846Z,101371.81
2022-10-26T14:10:29.985Z,101365.66
2022-10-26T14:13:28.017Z,101372.19
2022-10-26T14:16:26.896Z,101369.34
2022-10-26T14:19:42.533Z,101368.06
2022-10-26T14:22:39.835Z,101386.91
2022-10-26T14:25:42.515Z,101390.25
2022-10-26T14:29:02.192Z,101392.31
2022-10-26T14:31:58.734Z,101402.94
2022-10-26T14:34:55.856Z,101413.16
2022-10-26T14:37:55.486Z,101404.94
2022-10-26T14:40:55.203Z,101402.53
2022-10-26T14:43:51.945Z,101393.09
2022-10-26T14:46:49.398Z,101403.75
2022-10-26T14:49:46.791Z,101399.25
2022-10-26T14:52:53.119Z,101406.22
2022-10-26T14:55:50.909Z,101407.84
2022-10-26T14:58:48.038Z,101417.28
2022-10-26T15:02:05.971Z,101420.16
2022-10-26T15:05:16.168Z,101423.44
2022-10-26T15:08:55.974Z,101420.16
2022-10-26T15:11:54.198Z,101413.19
2022-10-26T15:14:51.403Z,101403.31
2022-10-26T15:17:58.166Z,101429.94
2022-10-26T15:20:55.252Z,101436.13
2022-10-26T15:23:52.191Z,101426.25
2022-10-26T15:26:49.079Z,101441.47
2022-10-26T15:29:46.978Z,101447.22
2022-10-26T15:32:43.864Z,101443.94
2022-10-26T15:35:40.850Z,101442.66
2022-10-26T15:38:38.274Z,101447.56
2022-10-26T15:41:41.499Z,101461.47
2022-10-26T15:44:40.039Z,101463.53
2022-10-26T15:47:37.252Z,101464.72
2022-10-26T15:50:39.098Z,101468.00
2022-10-26T15:53:38.486Z,101466.78
2022-10-26T15:56:35.949Z,101474.19
2022-10-26T15:59:32.903Z,101484.00
2022-10-26T16:02:29.956Z,101481.53
2022-10-26T16:05:27.192Z,101486.84
2022-10-26T16:08:23.870Z,101491.34
2022-10-26T16:11:21.122Z,101499.91
2022-10-26T16:14:17.875Z,101500.28
2022-10-26T16:17:14.963Z,101517.41
2022-10-26T16:20:16.678Z,101520.31
2022-10-26T16:23:13.971Z,101526.06
2022-10-26T16:26:11.178Z,101521.94
2022-10-26T16:29:08.321Z,101523.50
2022-10-26T16:32:05.298Z,101524.19
2022-10-26T16:35:02.304Z,101533.13
2022-10-26T16:37:58.819Z,101536.31
2022-10-26T16:41:09.388Z,101545.34
2022-10-26T16:44:06.124Z,101554.78
2022-10-26T16:47:02.881Z,101566.63
2022-10-26T16:49:59.846Z,101566.63
2022-10-26T16:52:56.961Z,101566.13
2022-10-26T16:55:54.047Z,101574.78
2022-10-26T16:58:51.351Z,101574.00
2022-10-26T17:01:48.345Z,101590.38
2022-10-26T17:04:44.847Z,101588.72
2022-10-26T17:07:42.251Z,101598.94
2022-10-26T17:10:38.858Z,101601.41
2022-10-26T17:13:39.750Z,101603.03
2022-10-26T17:16:36.780Z,101609.88
2022-10-26T17:19:34.294Z,101614.72
2022-10-26T17:22:31.370Z,101623.72
2022-10-26T17:25:28.239Z,101630.19
2022-10-26T17:28:25.235Z,101627.72
2022-10-26T17:31:22.613Z,101638.38
2022-10-26T17:34:20.328Z,101648.97
2022-10-26T17:37:17.556Z,101652.63
2022-10-26T17:40:15.023Z,101659.59
2022-10-26T17:43:11.812Z,101661.22
2022-10-26T17:46:24.041Z,101670.53
2022-10-26T17:49:24.821Z,101668.00
2022-10-26T17:52:25.284Z,101676.28
2022-10-26T17:55:22.011Z,101683.09
2022-10-26T17:58:18.805Z,101697.66
2022-10-26T18:01:16.565Z,101700.59
2022-10-26T18:04:14.183Z,101697.19
2022-10-26T18:07:11.039Z,101710.28
2022-10-26T18:10:26.293Z,101715.22
2022-10-26T18:13:26.829Z,101715.50
2022-10-26T18:16:25.071Z,101712.13
2022-10-26T18:19:22.229Z,101708.22
2022-10-26T18:22:19.122Z,101708.00
2022-10-26T18:25:16.134Z,101711.44
2022-10-26T18:28:13.156Z,101712.72
2022-10-26T18:31:11.426Z,101720.25
2022-10-26T18:34:09.704Z,101736.84
2022-10-26T18:37:07.563Z,101742.44
2022-10-26T18:40:04.825Z,101750.13
2022-10-26T18:43:02.218Z,101760.66
2022-10-26T18:46:05.462Z,101755.66
2022-10-26T18:49:02.288Z,101746.34
2022-10-26T18:51:59.945Z,101743.09
2022-10-26T18:54:57.136Z,101748.53
2022-10-26T18:57:54.112Z,101748.63
2022-10-26T19:00:53.363Z,101744.78
2022-10-26T19:04:00.275Z,101750.81
2022-10-26T19:06:57.401Z,101772.38
2022-10-26T19:09:54.246Z,101769.69
2022-10-26T19:12:51.655Z,101779.13
2022-10-26T19:15:49.183Z,101783.66
2022-10-26T19:18:46.131Z,101771.53
2022-10-26T19:21:43.004Z,101790.28
2022-10-26T19:24:40.502Z,101782.69
2022-10-26T19:27:37.349Z,101790.16
2022-10-26T19:30:34.291Z,101789.47
2022-10-26T19:33:31.252Z,101794.53
2022-10-26T19:36:28.623Z,101791.44
2022-10-26T19:39:26.468Z,101792.19
2022-10-26T19:42:23.402Z,101806.66
2022-10-26T19:45:20.203Z,101803.91
2022-10-26T19:48:17.160Z,101807.13
2022-10-26T19:51:14.092Z,101809.63
2022-10-26T19:54:11.193Z,101815.69
2022-10-26T19:57:08.383Z,101811.09
2022-10-26T20:00:06.232Z,101816.06
2022-10-26T20:03:10.393Z,101821.28
2022-10-26T20:06:11.263Z,101824.69
2022-10-26T20:09:08.442Z,101833.75
2022-10-26T20:12:05.685Z,101836.50
2022-10-26T20:15:03.351Z,101833.94
2022-10-26T20:18:00.452Z,101838.19
2022-10-26T20:20:57.277Z,101840.13
2022-10-26T20:23:54.107Z,101851.41
2022-10-26T20:26:51.332Z,101844.56
2022-10-26T20:29:48.377Z,101848.84
2022-10-26T20:32:45.251Z,101847.13
2022-10-26T20:35:42.259Z,101848.59
2022-10-26T20:38:39.387Z,101860.53
2022-10-26T20:41:42.090Z,101863.28
2022-10-26T20:44:41.591Z,101868.91
2022-10-26T20:47:38.660Z,101861.81
2022-10-26T20:50:36.643Z,101876.31
2022-10-26T20:53:35.874Z,101860.03
2022-10-26T20:56:34.330Z,101871.63
2022-10-26T20:59:45.664Z,101867.94
2022-10-26T21:02:43.659Z,101872.75
2022-10-26T21:05:41.885Z,101875.22
2022-10-26T21:08:39.545Z,101877.34
2022-10-26T21:11:36.482Z,101883.81
2022-10-26T21:14:40.521Z,101880.03
2022-10-26T21:17:37.462Z,101890.72
2022-10-26T21:20:34.462Z,101892.63
2022-10-26T21:23:38.066Z,101897.56
2022-10-26T21:26:35.021Z,101895.84
2022-10-26T21:29:32.147Z,101900.72
2022-10-26T21:32:28.970Z,101888.22
2022-10-26T21:35:26.217Z,101891.31
2022-10-26T21:38:23.131Z,101891.50
2022-10-26T21:41:20.793Z,101904.56
2022-10-26T21:44:40.334Z,101897.94
2022-10-26T21:47:35.391Z,101899.06
2022-10-26T21:50:32.179Z,101905.41
2022-10-26T21:53:29.387Z,101898.78
2022-10-26T21:56:26.528Z,101892.50
2022-10-26T21:59:23.308Z,101899.66
2022-10-26T22:02:20.369Z,101894.56
2022-10-26T22:05:17.469Z,101903.94
2022-10-26T22:08:14.419Z,101903.03
2022-10-26T22:11:15.646Z,101913.66
2022-10-26T22:14:13.899Z,101909.88
2022-10-26T22:17:11.250Z,101903.59
2022-10-26T22:20:09.336Z,101901.91
2022-10-26T22:23:06.362Z,101904.78
2022-10-26T22:26:07.884Z,101916.13
2022-10-26T22:29:05.669Z,101912.56
2022-10-26T22:32:02.336Z,101919.19
2022-10-26T22:35:10.771Z,101917.88
2022-10-26T22:38:08.582Z,101910.44
2022-10-26T22:41:05.323Z,101906.38
2022-10-26T22:44:02.727Z,101914.16
2022-10-26T22:46:59.649Z,101916.19
2022-10-26T22:49:56.475Z,101913.22
2022-10-26T22:52:53.805Z,101911.00
2022-10-26T22:55:51.670Z,101915.03
2022-10-26T22:58:48.181Z,101916.81
2022-10-26T23:01:46.134Z,101933.44
2022-10-26T23:04:43.363Z,101932.16
2022-10-26T23:07:40.474Z,101936.19
2022-10-26T23:10:37.366Z,101939.97
2022-10-26T23:13:34.397Z,101941.69
2022-10-26T23:16:31.337Z,101941.88
2022-10-26T23:19:28.435Z,101934.72
2022-10-26T23:22:25.292Z,101950.59
2022-10-26T23:25:22.115Z,101948.13
2022-10-26T23:28:19.601Z,101945.38
2022-10-26T23:31:21.025Z,101935.19
2022-10-26T23:34:18.513Z,101941.53
2022-10-26T23:37:15.721Z,101952.13
2022-10-26T23:40:12.563Z,101937.28
2022-10-26T23:43:09.306Z,101935.84
2022-10-26T23:46:06.331Z,101942.63
2022-10-26T23:49:03.060Z,101945.31
2022-10-26T23:52:00.580Z,101957.25
2022-10-26T23:54:57.413Z,101946.19
2022-10-26T23:57:54.227Z,101946.81
